createdAt,value
2018-10-19T00:00:41.327Z,3.20
2018-10-19T00:01:41.340Z,1.80
2018-10-19T00:02:41.355Z,1.90
2018-10-19T00:03:41.381Z,1.80
2018-10-19T00:04:41.400Z,1.90
2018-10-19T00:05:41.412Z,2.40
2018-10-19T00:06:41.443Z,2.10
2018-10-19T00:07:41.453Z,2.10
2018-10-19T00:08:41.468Z,2.10
2018-10-19T00:09:41.490Z,1.80
2018-10-19T00:10:41.503Z,1.80
2018-10-19T00:11:41.522Z,1.90
2018-10-19T00:12:41.587Z,2.00
2018-10-19T00:13:41.565Z,3.20
2018-10-19T00:14:41.569Z,2.10
2018-10-19T00:15:41.598Z,1.80
2018-10-19T00:16:41.612Z,2.00
2018-10-19T00:17:41.627Z,2.00
2018-10-19T00:18:41.636Z,1.60
2018-10-19T00:19:41.662Z,2.10
2018-10-19T00:20:41.680Z,2.60
2018-10-19T00:21:41.692Z,1.90
2018-10-19T00:22:41.717Z,2.20
2018-10-19T00:23:41.731Z,1.70
2018-10-19T00:24:41.740Z,1.70
2018-10-19T00:25:41.765Z,2.40
2018-10-19T00:26:41.785Z,1.80
2018-10-19T00:27:41.798Z,1.90
2018-10-19T00:28:41.820Z,2.20
2018-10-19T00:29:41.835Z,1.90
2018-10-19T00:30:41.845Z,2.40
2018-10-19T00:31:41.871Z,2.30
2018-10-19T00:32:41.890Z,2.30
2018-10-19T00:33:41.915Z,2.20
2018-10-19T00:34:41.912Z,1.50
2018-10-19T00:35:41.939Z,2.00
2018-10-19T00:36:41.987Z,1.90
2018-10-19T00:37:41.969Z,2.10
2018-10-19T00:38:41.997Z,2.50
2018-10-19T00:39:42.012Z,2.20
2018-10-19T00:40:42.020Z,2.60
2018-10-19T00:41:42.048Z,2.10
2018-10-19T00:42:42.061Z,2.10
2018-10-19T00:43:42.076Z,1.60
2018-10-19T00:44:42.085Z,2.30
2018-10-19T00:45:42.111Z,1.80
2018-10-19T00:46:42.127Z,2.30
2018-10-19T00:47:42.140Z,2.30
2018-10-19T00:48:42.170Z,1.80
2018-10-19T00:49:42.184Z,1.90
2018-10-19T00:50:42.194Z,2.40
2018-10-19T00:51:42.218Z,2.00
2018-10-19T00:52:42.241Z,2.20
2018-10-19T00:53:42.253Z,2.20
2018-10-19T00:54:42.273Z,2.10
2018-10-19T00:55:42.289Z,1.90
2018-10-19T00:56:42.301Z,1.90
2018-10-19T00:57:42.328Z,2.70
2018-10-19T00:58:42.342Z,2.40
2018-10-19T00:59:42.356Z,2.40
2018-10-19T01:00:42.366Z,1.90
2018-10-19T01:01:42.391Z,1.70
2018-10-19T01:02:42.402Z,2.00
2018-10-19T01:03:42.418Z,2.10
2018-10-19T01:04:42.447Z,2.10
2018-10-19T01:05:42.460Z,1.90
2018-10-19T01:06:42.472Z,2.20
2018-10-19T01:07:42.498Z,2.10
2018-10-19T01:08:42.527Z,1.90
2018-10-19T01:09:42.530Z,2.00
2018-10-19T01:10:42.539Z,1.80
2018-10-19T01:11:42.567Z,2.40
2018-10-19T01:12:42.576Z,1.90
2018-10-19T01:13:42.588Z,2.00
2018-10-19T01:14:42.620Z,2.30
2018-10-19T01:15:42.634Z,1.90
2018-10-19T01:16:42.643Z,2.10
2018-10-19T01:17:42.661Z,2.00
2018-10-19T01:18:42.682Z,2.00
2018-10-19T01:19:42.694Z,2.00
2018-10-19T01:20:42.713Z,2.00
2018-10-19T01:21:42.740Z,2.50
2018-10-19T01:22:42.748Z,2.00
2018-10-19T01:23:42.774Z,1.80
2018-10-19T01:24:42.783Z,1.90
2018-10-19T01:25:42.808Z,2.00
2018-10-19T01:26:42.821Z,1.90
2018-10-19T01:27:42.834Z,1.90
2018-10-19T01:28:42.856Z,1.70
2018-10-19T01:29:42.869Z,2.10
2018-10-19T01:30:42.884Z,1.80
2018-10-19T01:31:42.911Z,1.70
2018-10-19T01:32:42.920Z,2.50
2018-10-19T01:33:42.933Z,1.90
2018-10-19T01:34:42.950Z,1.80
2018-10-19T01:35:42.976Z,2.20
2018-10-19T01:36:43.004Z,1.80
2018-10-19T01:37:43.006Z,1.90
2018-10-19T01:38:43.029Z,2.10
2018-10-19T01:39:43.042Z,2.30
2018-10-19T01:40:43.062Z,2.10
2018-10-19T01:41:43.073Z,1.80
2018-10-19T01:42:43.096Z,1.70
2018-10-19T01:43:43.111Z,2.00
2018-10-19T01:44:43.121Z,1.90
2018-10-19T01:45:43.147Z,2.00
2018-10-19T01:46:43.166Z,1.90
2018-10-19T01:47:43.178Z,2.00
2018-10-19T01:48:43.189Z,2.30
2018-10-19T01:49:43.215Z,1.70
2018-10-19T01:50:43.225Z,2.00
2018-10-19T01:51:43.243Z,1.70
2018-10-19T01:52:43.257Z,2.00
2018-10-19T01:53:43.283Z,1.90
2018-10-19T01:54:43.295Z,1.90
2018-10-19T01:55:43.305Z,2.10
2018-10-19T01:56:43.348Z,2.20
2018-10-19T01:57:43.350Z,1.80
2018-10-19T01:58:43.364Z,2.50
2018-10-19T01:59:43.380Z,2.20
2018-10-19T02:00:43.400Z,1.90
2018-10-19T02:01:43.413Z,1.90
2018-10-19T02:02:43.430Z,1.60
2018-10-19T02:03:43.456Z,1.70
2018-10-19T02:04:43.477Z,1.90
2018-10-19T02:05:43.478Z,1.80
2018-10-19T02:06:43.494Z,1.90
2018-10-19T02:07:43.519Z,1.60
2018-10-19T02:08:43.537Z,1.70
2018-10-19T02:09:43.551Z,2.00
2018-10-19T02:10:43.567Z,1.90
2018-10-19T02:11:43.591Z,2.20
2018-10-19T02:12:43.599Z,1.70
2018-10-19T02:13:43.617Z,1.90
2018-10-19T02:14:43.625Z,2.30
2018-10-19T02:15:43.650Z,1.90
2018-10-19T02:16:43.669Z,2.10
2018-10-19T02:17:43.681Z,1.60
2018-10-19T02:18:43.694Z,1.90
2018-10-19T02:19:43.719Z,1.80
2018-10-19T02:20:43.736Z,1.90
2018-10-19T02:21:43.750Z,2.00
2018-10-19T02:22:43.762Z,1.90
2018-10-19T02:23:43.788Z,2.10
2018-10-19T02:24:43.798Z,2.10
2018-10-19T02:25:43.812Z,1.90
2018-10-19T02:26:43.828Z,2.10
2018-10-19T02:27:43.854Z,2.00
2018-10-19T02:28:43.863Z,1.70
2018-10-19T02:29:43.878Z,1.90
2018-10-19T02:30:43.892Z,1.90
2018-10-19T02:31:43.919Z,1.80
2018-10-19T02:32:43.937Z,1.80
2018-10-19T02:33:43.963Z,2.10
2018-10-19T02:34:43.958Z,1.90
2018-10-19T02:35:43.983Z,1.80
2018-10-19T02:36:44.000Z,2.40
2018-10-19T02:37:44.015Z,1.80
2018-10-19T02:38:44.032Z,1.70
2018-10-19T02:39:44.047Z,2.00
2018-10-19T02:40:44.066Z,2.20
2018-10-19T02:41:44.081Z,1.80
2018-10-19T02:42:44.096Z,2.00
2018-10-19T02:43:44.113Z,2.40
2018-10-19T02:44:44.132Z,1.70
2018-10-19T02:45:44.147Z,2.00
2018-10-19T02:46:44.161Z,1.80
2018-10-19T02:47:44.171Z,2.20
2018-10-19T02:48:44.189Z,2.00
2018-10-19T02:49:44.216Z,2.10
2018-10-19T02:50:44.226Z,1.80
2018-10-19T02:51:44.245Z,1.80
2018-10-19T02:52:44.257Z,1.90
2018-10-19T02:53:44.284Z,1.70
2018-10-19T02:54:44.295Z,2.00
2018-10-19T02:55:44.308Z,2.10
2018-10-19T02:56:44.318Z,2.20
2018-10-19T02:57:44.344Z,2.10
2018-10-19T02:58:44.361Z,2.40
2018-10-19T02:59:44.375Z,1.90
2018-10-19T03:00:44.385Z,1.90
2018-10-19T03:01:44.398Z,2.30
2018-10-19T03:02:44.425Z,2.20
2018-10-19T03:03:44.440Z,1.70
2018-10-19T03:04:44.459Z,2.60
2018-10-19T03:05:44.471Z,2.00
2018-10-19T03:06:44.490Z,2.20
2018-10-19T03:07:44.504Z,1.90
2018-10-19T03:08:44.523Z,1.80
2018-10-19T03:09:44.534Z,1.50
2018-10-19T03:10:44.563Z,2.10
2018-10-19T03:11:44.640Z,1.80
2018-10-19T03:12:44.587Z,2.10
2018-10-19T03:13:44.600Z,2.00
2018-10-19T03:14:44.615Z,1.90
2018-10-19T03:15:44.641Z,2.00
2018-10-19T03:16:44.649Z,1.80
2018-10-19T03:17:44.663Z,2.00
2018-10-19T03:18:44.678Z,2.20
2018-10-19T03:19:44.707Z,1.80
2018-10-19T03:20:44.722Z,2.10
2018-10-19T03:21:44.737Z,1.80
2018-10-19T03:22:44.743Z,2.10
2018-10-19T03:23:44.757Z,2.50
2018-10-19T03:24:44.796Z,2.00
2018-10-19T03:25:44.800Z,1.80
2018-10-19T03:26:44.819Z,1.80
2018-10-19T03:27:44.830Z,2.00
2018-10-19T03:28:44.840Z,2.10
2018-10-19T03:29:44.866Z,2.30
2018-10-19T03:30:44.913Z,1.90
2018-10-19T03:31:44.896Z,2.20
2018-10-19T03:32:44.905Z,2.60
2018-10-19T03:33:44.932Z,1.80
2018-10-19T03:34:44.944Z,2.60
2018-10-19T03:35:44.970Z,2.40
2018-10-19T03:36:44.975Z,2.50
2018-10-19T03:37:44.990Z,2.10
2018-10-19T03:38:45.012Z,1.90
2018-10-19T03:39:45.026Z,2.10
2018-10-19T03:40:45.043Z,2.00
2018-10-19T03:41:45.071Z,2.10
2018-10-19T03:42:45.080Z,1.80
2018-10-19T03:43:45.093Z,2.20
2018-10-19T03:44:45.103Z,2.10
2018-10-19T03:45:45.116Z,2.00
2018-10-19T03:46:45.139Z,2.10
2018-10-19T03:47:45.161Z,2.30
2018-10-19T03:48:45.169Z,2.10
2018-10-19T03:49:45.184Z,2.70
2018-10-19T03:50:45.198Z,2.30
2018-10-19T03:51:45.224Z,1.90
2018-10-19T03:52:45.242Z,2.20
2018-10-19T03:53:45.255Z,2.10
2018-10-19T03:54:45.263Z,1.90
2018-10-19T03:55:45.289Z,2.10
2018-10-19T03:56:45.307Z,2.40
2018-10-19T03:57:45.320Z,2.00
2018-10-19T03:58:45.335Z,2.10
2018-10-19T03:59:45.351Z,2.50
2018-10-19T04:00:45.359Z,2.10
2018-10-19T04:01:45.384Z,2.00
2018-10-19T04:02:45.404Z,1.90
2018-10-19T04:03:45.444Z,2.00
2018-10-19T04:04:45.427Z,1.70
2018-10-19T04:05:45.452Z,2.20
2018-10-19T04:06:45.463Z,2.10
2018-10-19T04:07:45.477Z,2.20
2018-10-19T04:08:45.497Z,2.00
2018-10-19T04:09:45.508Z,1.90
2018-10-19T04:10:45.533Z,2.30
2018-10-19T04:11:45.544Z,2.00
2018-10-19T04:12:45.564Z,2.30
2018-10-19T04:13:45.576Z,1.80
2018-10-19T04:14:45.588Z,1.80
2018-10-19T04:15:45.617Z,2.00
2018-10-19T04:16:45.623Z,2.30
2018-10-19T04:17:45.637Z,1.80
2018-10-19T04:18:45.649Z,1.70
2018-10-19T04:19:45.693Z,2.20
2018-10-19T04:20:45.696Z,2.30
2018-10-19T04:21:45.709Z,1.70
2018-10-19T04:22:45.723Z,2.00
2018-10-19T04:23:45.736Z,2.10
2018-10-19T04:24:45.750Z,2.10
2018-10-19T04:25:45.772Z,2.20
2018-10-19T04:26:45.790Z,2.20
2018-10-19T04:27:45.888Z,2.20
2018-10-19T04:28:45.823Z,2.40
2018-10-19T04:29:45.824Z,2.40
2018-10-19T04:30:45.853Z,1.90
2018-10-19T04:31:45.864Z,2.60
2018-10-19T04:32:45.883Z,2.70
2018-10-19T04:33:45.896Z,2.40
2018-10-19T04:34:45.906Z,2.20
2018-10-19T04:35:45.920Z,2.00
2018-10-19T04:36:45.962Z,1.70
2018-10-19T04:37:45.964Z,2.10
2018-10-19T04:38:45.974Z,2.30
2018-10-19T04:39:45.991Z,2.80
2018-10-19T04:40:46.010Z,2.30
2018-10-19T04:41:46.110Z,2.10
2018-10-19T04:42:46.047Z,2.10
2018-10-19T04:43:46.059Z,2.50
2018-10-19T04:44:46.065Z,1.80
2018-10-19T04:45:46.079Z,2.40
2018-10-19T04:46:46.104Z,2.10
2018-10-19T04:47:46.168Z,2.50
2018-10-19T04:48:46.148Z,2.40
2018-10-19T04:49:46.149Z,2.40
2018-10-19T04:50:46.157Z,1.80
2018-10-19T04:51:46.171Z,1.90
2018-10-19T04:52:46.189Z,2.10
2018-10-19T04:53:46.269Z,1.90
2018-10-19T04:54:46.235Z,2.00
2018-10-19T04:55:46.243Z,2.30
2018-10-19T04:56:46.254Z,2.00
2018-10-19T04:57:46.272Z,2.00
2018-10-19T04:58:46.295Z,1.90
2018-10-19T04:59:46.309Z,2.10
2018-10-19T05:00:46.317Z,2.10
2018-10-19T05:01:46.333Z,2.70
2018-10-19T05:02:46.493Z,2.20
2018-10-19T05:03:46.373Z,2.70
2018-10-19T05:04:46.500Z,2.20
2018-10-19T05:05:46.487Z,2.10
2018-10-19T05:06:46.513Z,2.10
2018-10-19T05:07:46.427Z,2.50
2018-10-19T05:08:46.445Z,2.40
2018-10-19T05:09:46.471Z,2.20
2018-10-19T05:10:46.481Z,2.40
2018-10-19T05:11:46.495Z,2.30
2018-10-19T05:12:46.512Z,2.40
2018-10-19T05:13:46.532Z,2.70
2018-10-19T05:14:46.552Z,2.20
2018-10-19T05:15:46.566Z,2.40
2018-10-19T05:16:46.574Z,2.60
2018-10-19T05:17:46.587Z,2.50
2018-10-19T05:18:46.601Z,2.20
2018-10-19T05:19:46.614Z,2.40
2018-10-19T05:20:46.642Z,2.30
2018-10-19T05:21:46.656Z,2.10
2018-10-19T05:22:46.681Z,2.60
2018-10-19T05:23:46.681Z,2.50
2018-10-19T05:24:46.765Z,2.60
2018-10-19T05:25:46.724Z,2.90
2018-10-19T05:26:46.736Z,2.40
2018-10-19T05:27:46.749Z,2.60
2018-10-19T05:28:46.759Z,2.40
2018-10-19T05:29:46.778Z,2.20
2018-10-19T05:30:46.817Z,2.70
2018-10-19T05:31:46.817Z,2.90
2018-10-19T05:32:46.869Z,2.50
2018-10-19T05:33:46.842Z,2.80
2018-10-19T05:34:46.852Z,2.60
2018-10-19T05:35:46.878Z,2.50
2018-10-19T05:36:46.900Z,3.50
2018-10-19T05:37:46.911Z,2.50
2018-10-19T05:38:46.920Z,2.30
2018-10-19T05:39:46.932Z,3.00
2018-10-19T05:40:46.954Z,2.90
2018-10-19T05:41:46.976Z,3.00
2018-10-19T05:42:47.004Z,3.20
2018-10-19T05:43:47.007Z,3.00
2018-10-19T05:44:47.014Z,2.60
2018-10-19T05:45:47.028Z,3.10
2018-10-19T05:46:47.056Z,2.40
2018-10-19T05:47:47.070Z,2.70
2018-10-19T05:48:47.087Z,2.80
2018-10-19T05:49:47.093Z,2.60
2018-10-19T05:50:47.113Z,3.00
2018-10-19T05:51:47.135Z,2.80
2018-10-19T05:52:47.165Z,3.20
2018-10-19T05:53:47.168Z,2.80
2018-10-19T05:54:47.175Z,2.80
2018-10-19T05:55:47.189Z,2.40
2018-10-19T05:56:47.219Z,3.80
2018-10-19T05:57:47.235Z,2.50
2018-10-19T05:58:47.244Z,2.60
2018-10-19T05:59:47.259Z,2.30
2018-10-19T06:00:47.267Z,2.70
2018-10-19T06:01:47.293Z,2.50
2018-10-19T06:02:47.319Z,2.70
2018-10-19T06:03:47.326Z,2.60
2018-10-19T06:04:47.336Z,2.80
2018-10-19T06:05:47.349Z,2.50
2018-10-19T06:06:47.361Z,3.30
2018-10-19T06:07:47.385Z,2.90
2018-10-19T06:08:47.405Z,2.70
2018-10-19T06:09:47.421Z,2.50
2018-10-19T06:10:47.427Z,2.70
2018-10-19T06:11:47.441Z,3.50
2018-10-19T06:12:47.470Z,2.60
2018-10-19T06:13:47.592Z,2.50
2018-10-19T06:14:47.500Z,2.70
2018-10-19T06:15:47.513Z,2.70
2018-10-19T06:16:47.526Z,2.60
2018-10-19T06:17:47.548Z,2.90
2018-10-19T06:18:47.564Z,2.70
2018-10-19T06:19:47.577Z,2.80
2018-10-19T06:20:47.589Z,2.50
2018-10-19T06:21:47.601Z,3.20
2018-10-19T06:22:47.629Z,2.90
2018-10-19T06:23:47.642Z,3.00
2018-10-19T06:24:47.660Z,3.10
2018-10-19T06:25:47.719Z,3.10
2018-10-19T06:26:47.686Z,3.00
2018-10-19T06:27:47.712Z,2.80
2018-10-19T06:28:47.723Z,2.70
2018-10-19T06:29:47.735Z,3.00
2018-10-19T06:30:47.750Z,3.10
2018-10-19T06:31:47.760Z,3.70
2018-10-19T06:32:47.779Z,3.10
2018-10-19T06:33:47.977Z,3.00
2018-10-19T06:34:47.816Z,3.00
2018-10-19T06:35:47.829Z,2.90
2018-10-19T06:36:47.860Z,3.30
2018-10-19T06:37:47.861Z,3.10
2018-10-19T06:38:47.892Z,2.90
2018-10-19T06:39:47.900Z,2.80
2018-10-19T06:40:47.955Z,2.70
2018-10-19T06:41:47.921Z,2.70
2018-10-19T06:42:47.942Z,2.90
2018-10-19T06:43:47.965Z,2.80
2018-10-19T06:44:47.979Z,2.70
2018-10-19T06:45:47.988Z,2.90
2018-10-19T06:46:48.018Z,2.60
2018-10-19T06:47:48.033Z,2.80
2018-10-19T06:48:48.070Z,2.90
2018-10-19T06:49:48.060Z,3.10
2018-10-19T06:50:48.069Z,3.20
2018-10-19T06:51:48.103Z,3.40
2018-10-19T06:52:48.115Z,3.40
2018-10-19T06:53:48.130Z,2.90
2018-10-19T06:54:48.140Z,3.00
2018-10-19T06:55:48.154Z,3.70
2018-10-19T06:56:48.170Z,2.90
2018-10-19T06:57:48.189Z,2.60
2018-10-19T06:58:48.213Z,2.90
2018-10-19T06:59:48.220Z,2.70
2018-10-19T07:00:48.231Z,2.70
2018-10-19T07:01:48.257Z,2.60
2018-10-19T07:02:48.267Z,3.00
2018-10-19T07:03:48.282Z,2.70
2018-10-19T07:04:48.299Z,2.90
2018-10-19T07:05:48.388Z,2.60
2018-10-19T07:06:48.338Z,3.30
2018-10-19T07:07:48.362Z,2.60
2018-10-19T07:08:48.367Z,3.10
2018-10-19T07:09:48.394Z,2.70
2018-10-19T07:10:48.404Z,2.60
2018-10-19T07:11:48.420Z,2.50
2018-10-19T07:12:48.428Z,2.50
2018-10-19T07:13:48.453Z,2.80
2018-10-19T07:14:48.471Z,3.10
2018-10-19T07:15:48.526Z,2.70
2018-10-19T07:16:48.507Z,2.80
2018-10-19T07:17:48.520Z,3.50
2018-10-19T07:18:48.553Z,3.20
2018-10-19T07:19:48.549Z,2.80
2018-10-19T07:20:48.580Z,3.40
2018-10-19T07:21:48.652Z,2.60
2018-10-19T07:22:48.602Z,3.10
2018-10-19T07:23:48.627Z,2.80
2018-10-19T07:24:48.644Z,2.50
2018-10-19T07:25:48.660Z,2.70
2018-10-19T07:26:48.674Z,2.60
2018-10-19T07:27:48.701Z,3.00
2018-10-19T07:28:48.712Z,3.10
2018-10-19T07:29:48.734Z,2.90
2018-10-19T07:30:48.751Z,2.80
2018-10-19T07:31:48.764Z,3.10
2018-10-19T07:32:48.773Z,2.90
2018-10-19T07:33:48.799Z,2.80
2018-10-19T07:34:48.816Z,3.10
2018-10-19T07:35:48.828Z,3.20
2018-10-19T07:36:48.847Z,2.70
2018-10-19T07:37:48.875Z,2.90
2018-10-19T07:38:48.880Z,2.80
2018-10-19T07:39:48.897Z,2.50
2018-10-19T07:40:48.924Z,2.90
2018-10-19T07:41:48.948Z,3.70
2018-10-19T07:42:48.964Z,2.80
2018-10-19T07:43:48.979Z,3.30
2018-10-19T07:44:48.988Z,3.30
2018-10-19T07:45:49.002Z,3.00
2018-10-19T07:46:49.032Z,2.80
2018-10-19T07:47:49.158Z,3.50
2018-10-19T07:48:49.058Z,2.80
2018-10-19T07:49:49.085Z,3.40
2018-10-19T07:50:49.092Z,3.00
2018-10-19T07:51:49.107Z,3.00
2018-10-19T07:52:49.137Z,3.20
2018-10-19T07:53:49.150Z,2.70
2018-10-19T07:54:49.161Z,3.30
2018-10-19T07:55:49.188Z,2.70
2018-10-19T07:56:49.204Z,3.00
2018-10-19T07:57:49.219Z,2.70
2018-10-19T07:58:49.243Z,2.70
2018-10-19T07:59:49.255Z,2.80
2018-10-19T08:00:49.279Z,3.10
2018-10-19T08:01:49.291Z,3.40
2018-10-19T08:02:49.308Z,3.30
2018-10-19T08:03:49.334Z,2.90
2018-10-19T08:04:49.344Z,3.00
2018-10-19T08:05:49.357Z,3.10
2018-10-19T08:06:49.385Z,2.80
2018-10-19T08:07:49.398Z,3.10
2018-10-19T08:08:49.416Z,2.60
2018-10-19T08:09:49.442Z,3.10
2018-10-19T08:10:49.453Z,3.10
2018-10-19T08:11:49.464Z,3.00
2018-10-19T08:12:49.493Z,3.00
2018-10-19T08:13:49.507Z,2.80
2018-10-19T08:14:49.535Z,2.70
2018-10-19T08:15:49.549Z,2.80
2018-10-19T08:16:49.560Z,2.70
2018-10-19T08:17:49.585Z,3.00
2018-10-19T08:18:49.601Z,2.20
2018-10-19T08:19:49.641Z,2.80
2018-10-19T08:20:49.642Z,2.90
2018-10-19T08:21:49.663Z,2.90
2018-10-19T08:22:49.674Z,3.10
2018-10-19T08:23:49.689Z,2.50
2018-10-19T08:24:49.719Z,2.70
2018-10-19T08:25:49.732Z,2.40
2018-10-19T08:26:49.744Z,2.80
2018-10-19T08:27:49.771Z,2.70
2018-10-19T08:28:49.787Z,3.40
2018-10-19T08:29:49.826Z,2.60
2018-10-19T08:30:49.825Z,2.60
2018-10-19T08:31:49.839Z,3.10
2018-10-19T08:32:49.859Z,2.80
2018-10-19T08:33:49.874Z,2.50
2018-10-19T08:34:49.902Z,3.20
2018-10-19T08:35:49.912Z,3.00
2018-10-19T08:36:49.932Z,3.00
2018-10-19T08:37:49.957Z,2.80
2018-10-19T08:38:49.972Z,2.50
2018-10-19T08:39:49.997Z,3.30
2018-10-19T08:40:50.008Z,2.90
2018-10-19T08:41:50.172Z,2.40
2018-10-19T08:42:50.049Z,2.90
2018-10-19T08:43:50.104Z,3.30
2018-10-19T08:44:50.088Z,3.20
2018-10-19T08:45:50.099Z,3.20
2018-10-19T08:46:50.135Z,3.30
2018-10-19T08:47:50.214Z,3.00
2018-10-19T08:48:50.159Z,3.00
2018-10-19T08:49:50.185Z,3.00
2018-10-19T08:50:50.195Z,3.00
2018-10-19T08:51:50.218Z,3.00
2018-10-19T08:52:50.237Z,2.90
2018-10-19T08:53:50.284Z,2.70
2018-10-19T08:54:50.318Z,2.90
2018-10-19T08:55:50.301Z,2.70
2018-10-19T08:56:50.309Z,3.20
2018-10-19T08:57:50.420Z,2.70
2018-10-19T08:58:50.356Z,2.90
2018-10-19T08:59:50.369Z,2.40
2018-10-19T09:00:50.392Z,2.90
2018-10-19T09:01:50.407Z,3.10
2018-10-19T09:02:50.421Z,3.10
2018-10-19T09:03:50.444Z,2.90
2018-10-19T09:04:50.459Z,2.90
2018-10-19T09:05:50.473Z,3.00
2018-10-19T09:06:50.495Z,2.90
2018-10-19T09:07:50.512Z,2.30
2018-10-19T09:08:50.527Z,3.00
2018-10-19T09:09:50.552Z,2.90
2018-10-19T09:10:50.575Z,2.90
2018-10-19T09:11:50.643Z,3.10
2018-10-19T09:12:50.730Z,3.20
2018-10-19T09:13:50.618Z,3.00
2018-10-19T09:14:50.645Z,2.60
2018-10-19T09:15:50.658Z,2.80
2018-10-19T09:16:50.668Z,2.90
2018-10-19T09:17:50.694Z,2.90
2018-10-19T09:18:50.708Z,3.60
2018-10-19T09:19:50.736Z,2.80
2018-10-19T09:20:50.755Z,2.70
2018-10-19T09:21:50.780Z,3.20
2018-10-19T09:22:50.789Z,3.10
2018-10-19T09:23:50.802Z,2.60
2018-10-19T09:24:50.818Z,3.20
2018-10-19T09:25:50.846Z,3.30
2018-10-19T09:26:50.857Z,3.00
2018-10-19T09:27:50.871Z,2.70
2018-10-19T09:28:50.905Z,2.60
2018-10-19T09:29:50.908Z,2.80
2018-10-19T09:30:50.927Z,2.90
2018-10-19T09:31:50.951Z,2.90
2018-10-19T09:32:50.961Z,2.80
2018-10-19T09:33:50.988Z,3.30
2018-10-19T09:34:50.998Z,2.80
2018-10-19T09:35:51.066Z,3.20
2018-10-19T09:36:51.089Z,2.60
2018-10-19T09:37:51.056Z,2.60
2018-10-19T09:38:51.319Z,2.30
2018-10-19T09:39:51.094Z,2.70
2018-10-19T09:40:51.144Z,2.30
2018-10-19T09:41:51.130Z,2.40
2018-10-19T09:42:51.149Z,2.60
2018-10-19T09:43:51.162Z,2.70
2018-10-19T09:44:51.172Z,3.10
2018-10-19T09:45:51.197Z,2.40
2018-10-19T09:46:51.217Z,2.60
2018-10-19T09:47:51.234Z,2.70
2018-10-19T09:48:51.254Z,3.00
2018-10-19T09:49:51.279Z,2.20
2018-10-19T09:50:51.280Z,2.10
2018-10-19T09:51:51.305Z,2.60
2018-10-19T09:52:51.321Z,2.50
2018-10-19T09:53:51.347Z,2.50
2018-10-19T09:54:51.358Z,2.40
2018-10-19T09:55:51.372Z,2.50
2018-10-19T09:56:51.389Z,3.00
2018-10-19T09:57:51.416Z,2.60
2018-10-19T09:58:51.680Z,2.50
2018-10-19T09:59:51.456Z,2.30
2018-10-19T10:00:51.469Z,2.30
2018-10-19T10:01:51.501Z,2.20
2018-10-19T10:02:51.507Z,2.20
2018-10-19T10:03:51.522Z,2.10
2018-10-19T10:04:51.536Z,2.20
2018-10-19T10:05:51.556Z,1.80
2018-10-19T10:06:51.573Z,2.60
2018-10-19T10:07:51.607Z,2.50
2018-10-19T10:08:51.619Z,2.20
2018-10-19T10:09:51.629Z,2.60
2018-10-19T10:10:51.651Z,2.30
2018-10-19T10:11:51.663Z,2.20
2018-10-19T10:12:51.682Z,2.40
2018-10-19T10:13:51.709Z,2.40
2018-10-19T10:14:51.768Z,2.80
2018-10-19T10:15:51.811Z,2.60
2018-10-19T10:16:51.755Z,3.00
2018-10-19T10:17:51.768Z,2.10
2018-10-19T10:18:52.091Z,2.10
2018-10-19T10:19:51.814Z,1.90
2018-10-19T10:20:51.822Z,1.80
2018-10-19T10:21:51.862Z,1.90
2018-10-19T10:22:51.863Z,1.90
2018-10-19T10:23:51.874Z,1.60
2018-10-19T10:24:51.931Z,2.20
2018-10-19T10:25:51.918Z,2.00
2018-10-19T10:26:51.929Z,2.30
2018-10-19T10:27:51.953Z,1.70
2018-10-19T10:28:51.971Z,2.10
2018-10-19T10:29:51.997Z,2.30
2018-10-19T10:30:52.017Z,2.00
2018-10-19T10:31:52.028Z,2.30
2018-10-19T10:32:52.055Z,2.30
2018-10-19T10:33:52.063Z,2.10
2018-10-19T10:34:52.090Z,2.10
2018-10-19T10:35:52.104Z,2.10
2018-10-19T10:36:52.114Z,2.30
2018-10-19T10:37:52.139Z,2.20
2018-10-19T10:38:52.421Z,2.10
2018-10-19T10:39:52.171Z,2.20
2018-10-19T10:40:52.217Z,3.20
2018-10-19T10:41:52.212Z,2.30
2018-10-19T10:42:52.256Z,2.30
2018-10-19T10:43:52.244Z,2.20
2018-10-19T10:44:52.264Z,3.10
2018-10-19T10:45:52.343Z,2.20
2018-10-19T10:46:52.318Z,2.40
2018-10-19T10:47:52.343Z,2.00
2018-10-19T10:48:52.375Z,1.70
2018-10-19T10:49:52.353Z,1.90
2018-10-19T10:50:52.381Z,1.30
2018-10-19T10:51:52.446Z,1.80
2018-10-19T10:52:52.418Z,2.10
2018-10-19T10:53:52.429Z,1.80
2018-10-19T10:54:52.470Z,1.80
2018-10-19T10:55:52.472Z,1.70
2018-10-19T10:56:52.490Z,2.00
2018-10-19T10:57:52.532Z,1.90
2018-10-19T10:58:52.775Z,1.90
2018-10-19T10:59:52.551Z,2.00
2018-10-19T11:00:52.573Z,1.60
2018-10-19T11:01:52.594Z,2.30
2018-10-19T11:02:52.606Z,1.90
2018-10-19T11:03:52.622Z,2.10
2018-10-19T11:04:52.642Z,2.10
2018-10-19T11:05:52.655Z,2.50
2018-10-19T11:06:52.742Z,2.30
2018-10-19T11:07:52.700Z,2.20
2018-10-19T11:08:52.711Z,2.50
2018-10-19T11:09:52.759Z,2.30
2018-10-19T11:10:52.746Z,2.70
2018-10-19T11:11:52.773Z,2.20
2018-10-19T11:12:52.794Z,2.10
2018-10-19T11:13:52.817Z,2.80
2018-10-19T11:14:52.826Z,1.90
2018-10-19T11:15:52.853Z,1.90
2018-10-19T11:16:52.870Z,1.90
2018-10-19T11:17:52.883Z,2.20
2018-10-19T11:18:52.961Z,1.80
2018-10-19T11:19:52.926Z,1.70
2018-10-19T11:20:52.934Z,1.90
2018-10-19T11:21:52.966Z,1.30
2018-10-19T11:22:52.977Z,3.00
2018-10-19T11:23:53.062Z,1.60
2018-10-19T11:24:53.042Z,1.80
2018-10-19T11:25:53.027Z,1.90
2018-10-19T11:26:53.053Z,1.50
2018-10-19T11:27:53.082Z,1.50
2018-10-19T11:28:53.113Z,1.60
2018-10-19T11:29:53.112Z,1.60
2018-10-19T11:30:53.162Z,1.90
2018-10-19T11:31:53.146Z,1.50
2018-10-19T11:32:53.165Z,2.00
2018-10-19T11:33:53.241Z,1.50
2018-10-19T11:34:53.201Z,1.70
2018-10-19T11:35:53.226Z,1.60
2018-10-19T11:36:53.238Z,1.40
2018-10-19T11:37:53.301Z,1.50
2018-10-19T11:38:53.532Z,1.60
2018-10-19T11:39:53.351Z,1.30
2018-10-19T11:40:53.318Z,1.40
2018-10-19T11:41:53.331Z,1.90
2018-10-19T11:42:53.362Z,1.50
2018-10-19T11:43:53.368Z,1.40
2018-10-19T11:44:53.387Z,1.80
2018-10-19T11:45:53.439Z,2.00
2018-10-19T11:46:53.424Z,1.60
2018-10-19T11:47:53.450Z,1.70
2018-10-19T11:48:53.500Z,1.40
2018-10-19T11:49:53.483Z,1.50
2018-10-19T11:50:53.505Z,1.40
2018-10-19T11:51:53.535Z,1.40
2018-10-19T11:52:53.541Z,1.50
2018-10-19T11:53:53.554Z,1.30
2018-10-19T11:54:53.588Z,1.40
2018-10-19T11:55:53.599Z,1.40
2018-10-19T11:56:53.613Z,1.40
2018-10-19T11:57:53.675Z,1.40
2018-10-19T11:58:53.896Z,1.60
2018-10-19T11:59:53.672Z,1.30
2018-10-19T12:00:53.693Z,1.60
2018-10-19T12:01:53.717Z,1.60
2018-10-19T12:02:53.726Z,1.60
2018-10-19T12:03:53.787Z,1.40
2018-10-19T12:04:53.770Z,1.80
2018-10-19T12:05:53.782Z,1.40
2018-10-19T12:06:53.824Z,1.40
2018-10-19T12:07:53.825Z,1.30
2018-10-19T12:08:53.847Z,1.70
2018-10-19T12:09:53.869Z,1.20
2018-10-19T12:10:53.876Z,1.40
2018-10-19T12:11:53.902Z,1.90
2018-10-19T12:12:53.968Z,1.40
2018-10-19T12:13:53.938Z,1.50
2018-10-19T12:14:53.985Z,1.60
2018-10-19T12:15:53.981Z,1.40
2018-10-19T12:16:54.111Z,1.50
2018-10-19T12:17:54.024Z,1.40
2018-10-19T12:18:54.320Z,1.30
2018-10-19T12:19:54.058Z,1.20
2018-10-19T12:20:54.136Z,1.50
2018-10-19T12:21:54.091Z,1.60
2018-10-19T12:22:54.114Z,1.50
2018-10-19T12:23:54.132Z,1.30
2018-10-19T12:24:54.160Z,1.40
2018-10-19T12:25:54.203Z,1.30
2018-10-19T12:26:54.198Z,1.30
2018-10-19T12:27:54.220Z,1.30
2018-10-19T12:28:54.217Z,1.20
2018-10-19T12:29:54.243Z,1.20
2018-10-19T12:30:54.275Z,1.40
2018-10-19T12:31:54.281Z,1.40
2018-10-19T12:32:54.349Z,1.50
2018-10-19T12:33:54.326Z,1.50
2018-10-19T12:34:54.346Z,1.30
2018-10-19T12:35:54.360Z,1.20
2018-10-19T12:36:54.439Z,1.50
2018-10-19T12:37:54.389Z,1.20
2018-10-19T12:38:54.464Z,1.20
2018-10-19T12:39:54.432Z,1.10
2018-10-19T12:40:54.513Z,1.50
2018-10-19T12:41:54.467Z,1.60
2018-10-19T12:42:54.518Z,1.50
2018-10-19T12:43:54.509Z,1.30
2018-10-19T12:44:54.549Z,1.50
2018-10-19T12:45:54.547Z,1.60
2018-10-19T12:46:54.560Z,1.40
2018-10-19T12:47:54.587Z,1.50
2018-10-19T12:48:54.627Z,1.20
2018-10-19T12:49:54.630Z,1.50
2018-10-19T12:50:54.689Z,1.30
2018-10-19T12:51:54.672Z,1.10
2018-10-19T12:52:54.678Z,1.20
2018-10-19T12:53:54.774Z,1.20
2018-10-19T12:54:54.731Z,1.40
2018-10-19T12:55:54.730Z,1.80
2018-10-19T12:56:54.780Z,1.40
2018-10-19T12:57:54.777Z,1.20
2018-10-19T12:58:55.048Z,1.50
2018-10-19T12:59:54.810Z,1.60
2018-10-19T13:00:54.843Z,1.50
2018-10-19T13:01:54.854Z,1.40
2018-10-19T13:02:54.884Z,1.40
2018-10-19T13:03:54.891Z,1.40
2018-10-19T13:04:54.901Z,1.40
2018-10-19T13:05:54.928Z,1.50
2018-10-19T13:06:55.005Z,1.20
2018-10-19T13:07:54.971Z,1.30
2018-10-19T13:08:54.989Z,1.20
2018-10-19T13:09:55.007Z,1.40
2018-10-19T13:10:55.023Z,1.40
2018-10-19T13:11:55.047Z,1.40
2018-10-19T13:12:55.108Z,1.20
2018-10-19T13:13:55.092Z,1.80
2018-10-19T13:14:55.123Z,1.60
2018-10-19T13:15:55.125Z,1.20
2018-10-19T13:16:55.145Z,1.60
2018-10-19T13:17:55.166Z,1.10
2018-10-19T13:18:55.481Z,1.40